Terminal Aerodrome Forecast
Issued by NWS North Platte, NE

Home | Current Version | Previous Version | Text Only | Print | Product List | Glossary On
Versions: 1 2 3 4 5 6 7 8 9 10 11 12 13 14 15
492
FTUS43 KLBF 300929 AAA
TAFVTN
TAF AMD
KVTN 300929Z 3009/0106 04013KT 5SM -RA BR OVC012
      TEMPO 3010/3012 3SM -RA BR BKN008
     FM301200 03016G24KT 2SM -RA BR OVC005
     FM301700 02016G24KT 4SM -RA BR OVC007
     FM302300 35013KT 4SM -RA BR OVC010=

USA.gov is the U.S. government's official web portal to all federal, state and local government web resources and services.